createdAt,value
2017-10-14T00:00:10.186Z,0
2017-10-14T00:00:50.726Z,0
2017-10-14T00:01:31.259Z,0
2017-10-14T00:02:11.797Z,0
2017-10-14T00:02:52.352Z,0
2017-10-14T00:03:32.866Z,0
2017-10-14T00:04:13.398Z,0
2017-10-14T00:04:53.933Z,0
2017-10-14T00:05:34.460Z,0
2017-10-14T00:06:14.990Z,0
2017-10-14T00:06:55.539Z,0
2017-10-14T00:07:36.115Z,0
2017-10-14T00:08:16.654Z,0
2017-10-14T00:08:57.189Z,0
2017-10-14T00:09:37.730Z,0
2017-10-14T00:10:18.267Z,0
2017-10-14T00:10:58.879Z,0
2017-10-14T00:11:39.414Z,0
2017-10-14T00:12:19.953Z,0
2017-10-14T00:13:00.512Z,0
2017-10-14T00:13:41.049Z,0
2017-10-14T00:14:21.596Z,0
2017-10-14T00:15:02.123Z,0
2017-10-14T00:15:42.660Z,0
2017-10-14T00:16:23.195Z,0
2017-10-14T00:17:03.730Z,0
2017-10-14T00:17:44.292Z,0
2017-10-14T00:18:24.825Z,0
2017-10-14T00:19:05.362Z,0
2017-10-14T00:19:45.902Z,0
2017-10-14T00:20:26.437Z,0
2017-10-14T00:21:06.975Z,0
2017-10-14T00:21:47.521Z,0
2017-10-14T00:22:28.059Z,0
2017-10-14T00:23:08.599Z,0
2017-10-14T00:23:49.137Z,0
2017-10-14T00:24:29.676Z,0
2017-10-14T00:25:10.216Z,0
2017-10-14T00:25:50.774Z,0
2017-10-14T00:26:31.316Z,0
2017-10-14T00:27:11.828Z,0
2017-10-14T00:27:52.363Z,0
2017-10-14T00:28:32.898Z,0
2017-10-14T00:29:13.437Z,0
2017-10-14T00:29:53.981Z,0
2017-10-14T00:30:34.520Z,0
2017-10-14T00:31:15.038Z,0
2017-10-14T00:31:55.633Z,0
2017-10-14T00:32:36.167Z,0
2017-10-14T00:33:16.717Z,0
2017-10-14T00:33:57.248Z,0
2017-10-14T00:34:37.783Z,0
2017-10-14T00:35:18.326Z,0
2017-10-14T00:35:58.874Z,0
2017-10-14T00:36:39.392Z,0
2017-10-14T00:37:19.928Z,0
2017-10-14T00:38:00.473Z,0
2017-10-14T00:38:40.990Z,0
2017-10-14T00:39:21.527Z,0
2017-10-14T00:40:02.065Z,0
2017-10-14T00:40:42.595Z,0
2017-10-14T00:41:23.136Z,0
2017-10-14T00:42:03.671Z,0
2017-10-14T00:42:44.222Z,0
2017-10-14T00:43:24.749Z,0
2017-10-14T00:44:05.283Z,0
2017-10-14T00:44:45.806Z,0
2017-10-14T00:45:26.358Z,0
2017-10-14T00:46:06.896Z,0
2017-10-14T00:46:47.426Z,0
2017-10-14T00:47:27.960Z,0
2017-10-14T00:48:08.493Z,0
2017-10-14T00:48:49.035Z,0
2017-10-14T00:49:29.569Z,0
2017-10-14T00:50:10.112Z,0
2017-10-14T00:50:50.650Z,0
2017-10-14T00:51:31.189Z,0
2017-10-14T00:52:11.735Z,0
2017-10-14T00:52:52.257Z,0
2017-10-14T00:53:32.787Z,0
2017-10-14T00:54:13.328Z,0
2017-10-14T00:54:53.865Z,0
2017-10-14T00:55:34.404Z,0
2017-10-14T00:56:14.933Z,0
2017-10-14T00:56:55.462Z,0
2017-10-14T00:57:36.001Z,0
2017-10-14T00:58:16.539Z,0
2017-10-14T00:58:57.078Z,0
2017-10-14T00:59:37.619Z,0
2017-10-14T01:00:18.164Z,0
2017-10-14T01:00:58.701Z,0
2017-10-14T01:01:39.243Z,0
2017-10-14T01:02:19.771Z,0
2017-10-14T01:03:00.303Z,0
2017-10-14T01:03:40.841Z,0
2017-10-14T01:04:21.400Z,0
2017-10-14T01:05:01.932Z,0
2017-10-14T01:05:42.472Z,0
2017-10-14T01:06:23.013Z,0
2017-10-14T01:07:03.576Z,0
2017-10-14T01:07:44.152Z,0
2017-10-14T01:08:24.687Z,0
2017-10-14T01:09:05.228Z,0
2017-10-14T01:09:45.765Z,0
2017-10-14T01:10:26.305Z,0
2017-10-14T01:11:06.824Z,0
2017-10-14T01:11:47.361Z,0
2017-10-14T01:12:27.902Z,0
2017-10-14T01:13:08.432Z,0
2017-10-14T01:13:48.978Z,0
2017-10-14T01:14:29.513Z,0
2017-10-14T01:15:10.054Z,0
2017-10-14T01:15:53.284Z,0
2017-10-14T01:16:33.834Z,0
2017-10-14T01:17:14.353Z,0
2017-10-14T01:17:54.903Z,0
2017-10-14T01:18:35.424Z,0
2017-10-14T01:19:15.945Z,0
2017-10-14T01:19:56.501Z,0
2017-10-14T01:20:37.082Z,0
2017-10-14T01:21:17.605Z,0
2017-10-14T01:21:58.141Z,0
2017-10-14T01:22:38.681Z,0
2017-10-14T01:23:19.223Z,0
2017-10-14T01:23:59.761Z,0
2017-10-14T01:24:40.292Z,0
2017-10-14T01:25:20.822Z,0
2017-10-14T01:26:01.349Z,0
2017-10-14T01:26:41.893Z,0
2017-10-14T01:27:22.436Z,0
2017-10-14T01:28:02.974Z,0
2017-10-14T01:28:43.522Z,0
2017-10-14T01:29:24.046Z,0
2017-10-14T01:30:04.582Z,0
2017-10-14T01:30:45.120Z,0
2017-10-14T01:31:25.653Z,0
2017-10-14T01:32:06.193Z,0
2017-10-14T01:32:46.776Z,0
2017-10-14T01:33:27.291Z,0
2017-10-14T01:34:07.823Z,0
2017-10-14T01:34:48.347Z,0
2017-10-14T01:35:28.888Z,0
2017-10-14T01:36:09.443Z,0
2017-10-14T01:36:49.972Z,0
2017-10-14T01:37:30.506Z,0
2017-10-14T01:38:11.062Z,0
2017-10-14T01:38:51.601Z,0
2017-10-14T01:39:32.166Z,0
2017-10-14T01:40:12.664Z,0
2017-10-14T01:40:53.197Z,0
2017-10-14T01:41:33.735Z,0
2017-10-14T01:42:16.100Z,0
2017-10-14T01:42:56.653Z,0
2017-10-14T01:43:37.182Z,0
2017-10-14T01:44:17.716Z,0
2017-10-14T01:44:58.242Z,0
2017-10-14T01:45:38.781Z,0
2017-10-14T01:46:19.317Z,0
2017-10-14T01:46:59.856Z,0
2017-10-14T01:47:40.385Z,0
2017-10-14T01:48:20.907Z,0
2017-10-14T01:49:01.438Z,0
2017-10-14T01:49:41.964Z,0
2017-10-14T01:50:22.499Z,0
2017-10-14T01:51:03.037Z,0
2017-10-14T01:51:43.578Z,0
2017-10-14T01:52:24.111Z,0
2017-10-14T01:53:04.644Z,0
2017-10-14T01:53:45.184Z,0
2017-10-14T01:54:25.724Z,0
2017-10-14T01:55:06.260Z,0
2017-10-14T01:55:46.801Z,0
2017-10-14T01:56:27.333Z,0
2017-10-14T01:57:07.871Z,0
2017-10-14T01:57:48.405Z,0
2017-10-14T01:58:28.942Z,0
2017-10-14T01:59:09.480Z,0
2017-10-14T01:59:50.016Z,0
2017-10-14T02:00:30.559Z,0
2017-10-14T02:01:11.098Z,0
2017-10-14T02:01:51.631Z,0
2017-10-14T02:02:32.165Z,0
2017-10-14T02:03:12.702Z,0
2017-10-14T02:03:53.237Z,0
2017-10-14T02:04:33.777Z,0
2017-10-14T02:05:14.312Z,0
2017-10-14T02:05:54.854Z,0
2017-10-14T02:06:35.398Z,0
2017-10-14T02:07:15.933Z,0
2017-10-14T02:07:56.456Z,0
2017-10-14T02:08:36.996Z,0
2017-10-14T02:09:17.528Z,0
2017-10-14T02:09:58.054Z,0
2017-10-14T02:10:38.594Z,0
2017-10-14T02:11:19.114Z,0
2017-10-14T02:11:59.650Z,0
2017-10-14T02:12:40.216Z,0
2017-10-14T02:13:20.748Z,0
2017-10-14T02:14:01.296Z,0
2017-10-14T02:14:41.828Z,0
2017-10-14T02:15:22.376Z,0
2017-10-14T02:16:02.912Z,0
2017-10-14T02:16:43.432Z,0
2017-10-14T02:17:23.965Z,0
2017-10-14T02:18:04.489Z,0
2017-10-14T02:18:45.049Z,0
2017-10-14T02:19:25.587Z,0
2017-10-14T02:20:06.125Z,0
2017-10-14T02:20:46.662Z,0
2017-10-14T02:21:27.200Z,0
2017-10-14T02:22:07.739Z,0
2017-10-14T02:22:48.270Z,0
2017-10-14T02:23:28.793Z,0
2017-10-14T02:24:09.335Z,0
2017-10-14T02:24:49.870Z,0
2017-10-14T02:25:30.395Z,0
2017-10-14T02:26:10.936Z,0
2017-10-14T02:26:51.503Z,0
2017-10-14T02:27:32.050Z,0
2017-10-14T02:28:12.575Z,0
2017-10-14T02:28:53.110Z,0
2017-10-14T02:29:33.654Z,0
2017-10-14T02:30:14.193Z,0
2017-10-14T02:30:54.731Z,0
2017-10-14T02:31:35.275Z,0
2017-10-14T02:32:15.790Z,0
2017-10-14T02:32:56.340Z,0
2017-10-14T02:33:36.879Z,0
2017-10-14T02:34:17.418Z,0
2017-10-14T02:34:57.951Z,0
2017-10-14T02:35:38.493Z,0
2017-10-14T02:36:19.029Z,0
2017-10-14T02:36:59.567Z,0
2017-10-14T02:37:40.098Z,0
2017-10-14T02:38:20.635Z,0
2017-10-14T02:39:01.165Z,0
2017-10-14T02:39:41.705Z,0
2017-10-14T02:40:22.241Z,0
2017-10-14T02:41:02.853Z,0
2017-10-14T02:41:43.368Z,0
2017-10-14T02:42:23.909Z,0
2017-10-14T02:43:04.447Z,0
2017-10-14T02:43:44.988Z,0
2017-10-14T02:44:25.515Z,0
2017-10-14T02:45:06.113Z,0
2017-10-14T02:45:46.651Z,0
2017-10-14T02:46:27.156Z,0
2017-10-14T02:47:07.705Z,0
2017-10-14T02:47:48.243Z,0
2017-10-14T02:48:28.774Z,0
2017-10-14T02:49:09.307Z,0
2017-10-14T02:49:49.840Z,0
2017-10-14T02:50:30.389Z,0
2017-10-14T02:51:10.922Z,0
2017-10-14T02:51:52.631Z,0
2017-10-14T02:52:33.242Z,0
2017-10-14T02:53:14.098Z,0
2017-10-14T02:53:54.638Z,0
2017-10-14T02:54:35.160Z,0
2017-10-14T02:55:15.701Z,0
2017-10-14T02:55:56.238Z,0
2017-10-14T02:56:36.780Z,0
2017-10-14T02:57:17.313Z,0
2017-10-14T02:57:57.846Z,0
2017-10-14T02:58:38.379Z,0
2017-10-14T02:59:18.942Z,0
2017-10-14T02:59:59.452Z,0
2017-10-14T03:00:39.978Z,0
2017-10-14T03:01:20.514Z,0
2017-10-14T03:02:01.046Z,0
2017-10-14T03:02:41.583Z,0
2017-10-14T03:03:22.120Z,0
2017-10-14T03:04:02.660Z,0
2017-10-14T03:04:43.199Z,0
2017-10-14T03:05:23.754Z,0
2017-10-14T03:06:04.267Z,0
2017-10-14T03:06:44.805Z,0
2017-10-14T03:07:25.340Z,0
2017-10-14T03:08:05.877Z,0
2017-10-14T03:08:46.411Z,0
2017-10-14T03:09:26.949Z,0
2017-10-14T03:10:07.495Z,0
2017-10-14T03:10:48.022Z,0
2017-10-14T03:11:28.556Z,0
2017-10-14T03:12:09.079Z,0
2017-10-14T03:12:49.620Z,0
2017-10-14T03:13:30.148Z,0
2017-10-14T03:14:10.687Z,0
2017-10-14T03:14:51.239Z,0
2017-10-14T03:15:31.768Z,0
2017-10-14T03:16:12.302Z,0
2017-10-14T03:16:52.840Z,0
2017-10-14T03:17:33.380Z,0
2017-10-14T03:18:13.921Z,0
2017-10-14T03:18:54.624Z,0
2017-10-14T03:19:35.161Z,0
2017-10-14T03:20:15.713Z,0
2017-10-14T03:20:56.314Z,0
2017-10-14T03:21:36.916Z,0
2017-10-14T03:22:17.453Z,0
2017-10-14T03:22:57.994Z,0
2017-10-14T03:23:38.533Z,0
2017-10-14T03:24:19.064Z,0
2017-10-14T03:24:59.612Z,0
2017-10-14T03:25:40.140Z,0
2017-10-14T03:26:20.669Z,0
2017-10-14T03:27:01.194Z,0
2017-10-14T03:27:41.749Z,0
2017-10-14T03:28:22.281Z,0
2017-10-14T03:29:02.830Z,0
2017-10-14T03:29:43.367Z,0
2017-10-14T03:30:23.896Z,0
2017-10-14T03:31:04.429Z,0
2017-10-14T03:31:45.132Z,0
2017-10-14T03:32:25.673Z,0
2017-10-14T03:33:06.201Z,0
2017-10-14T03:33:46.730Z,0
2017-10-14T03:34:27.270Z,0
2017-10-14T03:35:07.800Z,0
2017-10-14T03:35:48.340Z,0
2017-10-14T03:36:28.878Z,0
2017-10-14T03:37:09.415Z,0
2017-10-14T03:37:49.946Z,0
2017-10-14T03:38:30.481Z,0
2017-10-14T03:39:11.012Z,0
2017-10-14T03:39:51.548Z,0
2017-10-14T03:40:32.079Z,0
2017-10-14T03:41:12.608Z,0
2017-10-14T03:41:53.143Z,0
2017-10-14T03:42:33.675Z,0
2017-10-14T03:43:14.213Z,0
2017-10-14T03:43:54.751Z,0
2017-10-14T03:44:35.281Z,0
2017-10-14T03:45:15.822Z,0
2017-10-14T03:45:56.352Z,0
2017-10-14T03:46:36.892Z,0
2017-10-14T03:47:17.414Z,0
2017-10-14T03:47:57.968Z,0
2017-10-14T03:48:38.506Z,0
2017-10-14T03:49:19.069Z,0
2017-10-14T03:49:59.605Z,0
2017-10-14T03:50:40.159Z,0
2017-10-14T03:51:20.700Z,0
2017-10-14T03:52:01.238Z,0
2017-10-14T03:52:41.776Z,0
2017-10-14T03:53:22.321Z,0
2017-10-14T03:54:02.857Z,0
2017-10-14T03:54:43.397Z,0
2017-10-14T03:55:23.938Z,0
2017-10-14T03:56:04.468Z,0
2017-10-14T03:56:44.995Z,0
2017-10-14T03:57:25.544Z,0
2017-10-14T03:58:06.071Z,0
2017-10-14T03:58:46.611Z,0
2017-10-14T03:59:27.153Z,0
2017-10-14T04:00:07.694Z,0
2017-10-14T04:00:48.235Z,0
2017-10-14T04:01:28.770Z,0
2017-10-14T04:02:09.322Z,0
2017-10-14T04:02:49.862Z,0
2017-10-14T04:03:30.390Z,0
2017-10-14T04:04:10.920Z,0
2017-10-14T04:04:51.456Z,0
2017-10-14T04:05:31.993Z,0
2017-10-14T04:06:12.537Z,0
2017-10-14T04:06:53.076Z,0
2017-10-14T04:07:33.606Z,0
2017-10-14T04:08:14.158Z,0
2017-10-14T04:08:54.671Z,0
2017-10-14T04:09:35.210Z,0
2017-10-14T04:10:15.732Z,0
2017-10-14T04:10:56.297Z,0
2017-10-14T04:11:36.880Z,0
2017-10-14T04:12:17.406Z,0
2017-10-14T04:12:57.937Z,0
2017-10-14T04:13:38.481Z,0
2017-10-14T04:14:19.010Z,0
2017-10-14T04:14:59.546Z,0
2017-10-14T04:15:40.082Z,0
2017-10-14T04:16:20.637Z,0
2017-10-14T04:17:01.174Z,0
2017-10-14T04:17:41.710Z,0
2017-10-14T04:18:22.425Z,0
2017-10-14T04:19:02.960Z,0
2017-10-14T04:19:43.527Z,0
2017-10-14T04:20:24.220Z,0
2017-10-14T04:21:04.775Z,0
2017-10-14T04:21:45.325Z,0
2017-10-14T04:22:25.883Z,0
2017-10-14T04:23:06.425Z,0
2017-10-14T04:23:46.953Z,0
2017-10-14T04:24:27.478Z,0
2017-10-14T04:25:08.019Z,0
2017-10-14T04:25:48.546Z,0
2017-10-14T04:26:29.090Z,0
2017-10-14T04:27:09.615Z,0
2017-10-14T04:27:50.169Z,0
2017-10-14T04:28:30.705Z,0
2017-10-14T04:29:11.236Z,0
2017-10-14T04:29:51.770Z,0
2017-10-14T04:30:32.298Z,0
2017-10-14T04:31:12.851Z,0
2017-10-14T04:31:53.395Z,0
2017-10-14T04:32:33.945Z,0
2017-10-14T04:33:14.462Z,0
2017-10-14T04:33:54.996Z,0
2017-10-14T04:34:35.525Z,0
2017-10-14T04:35:16.052Z,0
2017-10-14T04:35:56.616Z,0
2017-10-14T04:36:37.138Z,0
2017-10-14T04:37:17.671Z,0
2017-10-14T04:37:58.222Z,0
2017-10-14T04:38:38.766Z,0
2017-10-14T04:39:19.296Z,0
2017-10-14T04:39:59.831Z,0
2017-10-14T04:40:40.343Z,0
2017-10-14T04:41:20.875Z,0
2017-10-14T04:42:01.414Z,0
2017-10-14T04:42:41.964Z,0
2017-10-14T04:43:22.504Z,0
2017-10-14T04:44:03.045Z,0
2017-10-14T04:44:43.662Z,0
2017-10-14T04:45:24.194Z,0
2017-10-14T04:46:04.731Z,0
2017-10-14T04:46:45.267Z,0
2017-10-14T04:47:25.798Z,0
2017-10-14T04:48:06.337Z,0
2017-10-14T04:48:46.877Z,0
2017-10-14T04:49:27.414Z,0
2017-10-14T04:50:07.951Z,0
2017-10-14T04:50:48.511Z,0
2017-10-14T04:51:29.045Z,0
2017-10-14T04:52:09.585Z,0
2017-10-14T04:52:50.125Z,0
2017-10-14T04:53:30.665Z,0
2017-10-14T04:54:11.193Z,0
2017-10-14T04:54:51.732Z,0
2017-10-14T04:55:32.288Z,0
2017-10-14T04:56:12.821Z,0
2017-10-14T04:56:53.358Z,0
2017-10-14T04:57:33.895Z,0
2017-10-14T04:58:14.427Z,0
2017-10-14T04:58:54.958Z,0
2017-10-14T04:59:35.493Z,0
2017-10-14T05:00:16.016Z,0
2017-10-14T05:00:56.553Z,0
2017-10-14T05:01:37.095Z,0
2017-10-14T05:02:17.630Z,0
2017-10-14T05:02:58.144Z,0
2017-10-14T05:03:38.679Z,0
2017-10-14T05:04:19.227Z,0
2017-10-14T05:04:59.814Z,0
2017-10-14T05:05:40.356Z,0
2017-10-14T05:06:20.893Z,0
2017-10-14T05:07:01.430Z,0
2017-10-14T05:07:41.971Z,0
2017-10-14T05:08:22.503Z,0
2017-10-14T05:09:03.041Z,0
2017-10-14T05:09:43.575Z,0
2017-10-14T05:10:24.111Z,0
2017-10-14T05:11:04.645Z,0
2017-10-14T05:11:45.186Z,0
2017-10-14T05:12:25.725Z,0
2017-10-14T05:13:06.266Z,0
2017-10-14T05:13:46.839Z,0
2017-10-14T05:14:27.409Z,0
2017-10-14T05:15:07.945Z,0
2017-10-14T05:15:48.580Z,0
2017-10-14T05:16:29.116Z,0
2017-10-14T05:17:09.650Z,0
2017-10-14T05:17:50.209Z,0
2017-10-14T05:18:30.769Z,0
2017-10-14T05:19:11.397Z,0
2017-10-14T05:19:51.949Z,0
2017-10-14T05:20:32.845Z,0
2017-10-14T05:21:13.379Z,0
2017-10-14T05:21:54.126Z,0
2017-10-14T05:22:34.661Z,0
2017-10-14T05:23:15.359Z,0
2017-10-14T05:23:56.050Z,0
2017-10-14T05:24:36.884Z,0
2017-10-14T05:25:17.489Z,0
2017-10-14T05:25:58.207Z,0
2017-10-14T05:26:38.743Z,0
2017-10-14T05:27:19.273Z,0
2017-10-14T05:27:59.813Z,0
2017-10-14T05:28:40.346Z,0
2017-10-14T05:29:20.886Z,0
2017-10-14T05:30:01.426Z,0
2017-10-14T05:30:41.961Z,0
2017-10-14T05:31:22.496Z,0
2017-10-14T05:32:03.033Z,0
2017-10-14T05:32:43.568Z,0
2017-10-14T05:33:24.102Z,0
2017-10-14T05:34:04.644Z,0
2017-10-14T05:34:45.189Z,0
2017-10-14T05:35:25.716Z,0
2017-10-14T05:36:06.250Z,0
2017-10-14T05:36:47.517Z,0
2017-10-14T05:37:28.057Z,0
2017-10-14T05:38:08.592Z,0
2017-10-14T05:38:49.123Z,0
2017-10-14T05:39:29.667Z,0
2017-10-14T05:40:10.207Z,0
2017-10-14T05:40:50.728Z,0
2017-10-14T05:41:31.265Z,0
2017-10-14T05:42:11.797Z,0
2017-10-14T05:42:52.327Z,0
2017-10-14T05:43:32.868Z,0
2017-10-14T05:44:13.415Z,0
2017-10-14T05:44:53.958Z,0
2017-10-14T05:45:34.486Z,0
2017-10-14T05:46:15.019Z,0
2017-10-14T05:46:55.555Z,0
2017-10-14T05:47:36.087Z,0
2017-10-14T05:48:16.627Z,0
2017-10-14T05:48:57.172Z,0
2017-10-14T05:49:37.724Z,0
2017-10-14T05:50:18.265Z,5
2017-10-14T05:50:58.793Z,5
2017-10-14T05:51:39.326Z,5
2017-10-14T05:52:19.906Z,5
2017-10-14T05:53:00.444Z,5
2017-10-14T05:53:41.005Z,5
2017-10-14T05:54:21.538Z,5
2017-10-14T05:55:02.140Z,5
2017-10-14T05:55:42.680Z,5
2017-10-14T05:56:23.459Z,5
2017-10-14T05:57:03.947Z,5
2017-10-14T05:57:44.490Z,5
2017-10-14T05:58:25.010Z,5
2017-10-14T05:59:05.547Z,5
2017-10-14T05:59:46.083Z,10
2017-10-14T06:00:26.611Z,10
2017-10-14T06:01:07.146Z,10
2017-10-14T06:01:47.680Z,10
2017-10-14T06:02:28.226Z,10
2017-10-14T06:03:08.751Z,10
2017-10-14T06:03:49.281Z,10
2017-10-14T06:04:29.814Z,10
2017-10-14T06:05:10.348Z,10
2017-10-14T06:05:50.880Z,10
2017-10-14T06:06:31.419Z,10
2017-10-14T06:07:11.953Z,15
2017-10-14T06:07:52.499Z,15
2017-10-14T06:08:33.058Z,15
2017-10-14T06:09:13.598Z,15
2017-10-14T06:09:54.124Z,15
2017-10-14T06:10:34.650Z,15
2017-10-14T06:11:15.183Z,15
2017-10-14T06:11:55.721Z,15
2017-10-14T06:12:36.257Z,15
2017-10-14T06:13:16.787Z,20
2017-10-14T06:13:57.324Z,20
2017-10-14T06:14:37.851Z,20
2017-10-14T06:15:18.395Z,20
2017-10-14T06:15:58.928Z,20
2017-10-14T06:16:39.463Z,20
2017-10-14T06:17:20.014Z,20
2017-10-14T06:18:00.571Z,20
2017-10-14T06:18:41.115Z,20
2017-10-14T06:19:21.705Z,25
2017-10-14T06:20:02.245Z,25
2017-10-14T06:20:42.780Z,25
2017-10-14T06:21:23.314Z,25
2017-10-14T06:22:03.869Z,25
2017-10-14T06:22:44.403Z,25
2017-10-14T06:23:25.054Z,25
2017-10-14T06:24:05.732Z,30
2017-10-14T06:24:46.324Z,30
2017-10-14T06:25:27.035Z,35
2017-10-14T06:26:07.643Z,35
2017-10-14T06:26:48.213Z,35
2017-10-14T06:27:29.389Z,35
2017-10-14T06:28:09.969Z,35
2017-10-14T06:28:50.505Z,35
2017-10-14T06:29:31.091Z,35
2017-10-14T06:30:11.620Z,35
2017-10-14T06:30:52.910Z,35
2017-10-14T06:31:33.442Z,35
2017-10-14T06:32:13.975Z,45
2017-10-14T06:32:54.577Z,45
2017-10-14T06:33:35.136Z,40
2017-10-14T06:34:15.680Z,40
2017-10-14T06:34:56.215Z,45
2017-10-14T06:35:36.755Z,45
2017-10-14T06:36:17.350Z,45
2017-10-14T06:36:57.890Z,45
2017-10-14T06:37:38.518Z,45
2017-10-14T06:38:19.820Z,45
2017-10-14T06:39:00.363Z,45
2017-10-14T06:39:41.023Z,50
2017-10-14T06:40:21.673Z,50
2017-10-14T06:41:02.208Z,50
2017-10-14T06:41:42.742Z,55
2017-10-14T06:42:23.348Z,55
2017-10-14T06:43:03.894Z,60
2017-10-14T06:43:44.551Z,55
2017-10-14T06:44:25.185Z,50
2017-10-14T06:45:05.685Z,60
2017-10-14T06:45:46.211Z,50
2017-10-14T06:46:26.788Z,60
2017-10-14T06:47:07.338Z,50
2017-10-14T06:47:47.862Z,60
2017-10-14T06:48:28.920Z,65
2017-10-14T06:49:09.457Z,60
2017-10-14T06:49:50.103Z,60
2017-10-14T06:50:30.832Z,65
2017-10-14T06:51:11.194Z,60
2017-10-14T06:51:51.811Z,70
2017-10-14T06:52:32.474Z,70
2017-10-14T06:53:13.574Z,65
2017-10-14T06:53:54.936Z,70
2017-10-14T06:54:36.263Z,75
2017-10-14T06:55:17.163Z,75
2017-10-14T06:55:57.980Z,70
2017-10-14T06:56:38.557Z,80
2017-10-14T06:57:19.227Z,70
2017-10-14T06:58:00.066Z,75
2017-10-14T06:58:40.757Z,70
2017-10-14T06:59:22.014Z,75
2017-10-14T07:00:02.522Z,75
2017-10-14T07:00:43.309Z,80
2017-10-14T07:01:24.496Z,85
2017-10-14T07:02:05.261Z,80
2017-10-14T07:02:46.645Z,85
2017-10-14T07:03:27.190Z,95
2017-10-14T07:04:07.779Z,85
2017-10-14T07:04:48.824Z,90
2017-10-14T07:05:29.944Z,95
2017-10-14T07:06:10.276Z,100
2017-10-14T07:06:50.828Z,105
2017-10-14T07:07:31.579Z,100
2017-10-14T07:08:12.372Z,105
2017-10-14T07:08:53.047Z,100
2017-10-14T07:09:33.584Z,100
2017-10-14T07:10:14.118Z,95
2017-10-14T07:10:54.647Z,95
2017-10-14T07:11:35.183Z,110
2017-10-14T07:12:15.717Z,100
2017-10-14T07:12:56.260Z,95
2017-10-14T07:13:36.941Z,100
2017-10-14T07:14:17.464Z,95
2017-10-14T07:14:58.002Z,90
2017-10-14T07:15:38.541Z,95
2017-10-14T07:16:19.082Z,95
2017-10-14T07:16:59.616Z,85
2017-10-14T07:17:40.154Z,95
2017-10-14T07:18:20.689Z,100
2017-10-14T07:19:01.237Z,90
2017-10-14T07:19:42.009Z,95
2017-10-14T07:20:22.542Z,95
2017-10-14T07:21:03.076Z,100
2017-10-14T07:21:43.601Z,95
2017-10-14T07:22:24.180Z,105
2017-10-14T07:23:04.716Z,110
2017-10-14T07:23:45.262Z,100
2017-10-14T07:24:25.796Z,100
2017-10-14T07:25:06.330Z,95
2017-10-14T07:25:46.861Z,90
2017-10-14T07:26:27.393Z,95
2017-10-14T07:27:07.931Z,95
2017-10-14T07:27:48.469Z,95
2017-10-14T07:28:29.006Z,95
2017-10-14T07:29:09.551Z,100
2017-10-14T07:29:50.069Z,100
2017-10-14T07:30:30.605Z,95
2017-10-14T07:31:11.162Z,95
2017-10-14T07:31:51.669Z,95
2017-10-14T07:32:32.203Z,95
2017-10-14T07:33:12.740Z,95
2017-10-14T07:33:53.280Z,95
2017-10-14T07:34:33.817Z,100
2017-10-14T07:35:14.353Z,100
2017-10-14T07:35:54.888Z,100
2017-10-14T07:36:35.428Z,100
2017-10-14T07:37:15.956Z,100
2017-10-14T07:37:56.494Z,100
2017-10-14T07:38:37.035Z,100
2017-10-14T07:39:17.571Z,100
2017-10-14T07:39:58.101Z,100
2017-10-14T07:40:38.641Z,100
2017-10-14T07:41:19.176Z,100
2017-10-14T07:41:59.710Z,100
2017-10-14T07:42:40.238Z,105
2017-10-14T07:43:20.772Z,110
2017-10-14T07:44:01.310Z,105
2017-10-14T07:44:41.849Z,110
2017-10-14T07:45:22.384Z,110
2017-10-14T07:46:02.921Z,105
2017-10-14T07:46:43.466Z,105
2017-10-14T07:47:23.998Z,110
2017-10-14T07:48:04.532Z,110
2017-10-14T07:48:45.071Z,110
2017-10-14T07:49:25.605Z,110
2017-10-14T07:50:06.180Z,110
2017-10-14T07:50:46.715Z,115
2017-10-14T07:51:27.252Z,115
2017-10-14T07:52:07.794Z,115
2017-10-14T07:52:48.343Z,115
2017-10-14T07:53:28.917Z,115
2017-10-14T07:54:09.455Z,115
2017-10-14T07:54:49.994Z,115
2017-10-14T07:55:30.534Z,115
2017-10-14T07:56:11.074Z,115
2017-10-14T07:56:51.629Z,115
2017-10-14T07:57:32.155Z,115
2017-10-14T07:58:12.690Z,115
2017-10-14T07:58:53.232Z,115
2017-10-14T07:59:33.763Z,120
2017-10-14T08:00:14.302Z,120
2017-10-14T08:00:54.847Z,135
2017-10-14T08:01:35.381Z,160
2017-10-14T08:02:15.929Z,170
2017-10-14T08:02:56.479Z,135
2017-10-14T08:03:37.016Z,125
2017-10-14T08:04:17.562Z,150
2017-10-14T08:04:58.098Z,180
2017-10-14T08:05:38.680Z,165
2017-10-14T08:06:19.201Z,140
2017-10-14T08:06:59.742Z,130
2017-10-14T08:07:40.305Z,125
2017-10-14T08:08:20.840Z,125
2017-10-14T08:09:01.364Z,125
2017-10-14T08:09:41.942Z,120
2017-10-14T08:10:22.480Z,125
2017-10-14T08:11:03.013Z,125
2017-10-14T08:11:43.552Z,125
2017-10-14T08:12:24.084Z,125
2017-10-14T08:13:04.701Z,125
2017-10-14T08:13:45.255Z,125
2017-10-14T08:14:25.771Z,125
2017-10-14T08:15:06.315Z,130
2017-10-14T08:15:46.852Z,130
2017-10-14T08:16:27.398Z,130
2017-10-14T08:17:07.928Z,135
2017-10-14T08:17:48.463Z,150
2017-10-14T08:18:29.002Z,155
2017-10-14T08:19:09.531Z,140
2017-10-14T08:19:50.071Z,130
2017-10-14T08:20:30.613Z,135
2017-10-14T08:21:11.155Z,140
2017-10-14T08:21:51.688Z,145
2017-10-14T08:22:32.219Z,145
2017-10-14T08:23:12.758Z,140
2017-10-14T08:23:53.298Z,135
2017-10-14T08:24:33.836Z,135
2017-10-14T08:25:14.372Z,135
2017-10-14T08:25:54.914Z,135
2017-10-14T08:26:35.454Z,135
2017-10-14T08:27:15.982Z,135
2017-10-14T08:27:56.551Z,135
2017-10-14T08:28:37.068Z,140
2017-10-14T08:29:17.609Z,140
2017-10-14T08:29:58.139Z,145
2017-10-14T08:30:38.678Z,145
2017-10-14T08:31:19.219Z,145
2017-10-14T08:31:59.758Z,145
2017-10-14T08:32:40.297Z,145
2017-10-14T08:33:20.836Z,145
2017-10-14T08:34:01.372Z,145
2017-10-14T08:34:41.898Z,145
2017-10-14T08:35:22.434Z,145
2017-10-14T08:36:02.965Z,150
2017-10-14T08:36:43.512Z,150
2017-10-14T08:37:24.049Z,155
2017-10-14T08:38:04.582Z,155
2017-10-14T08:38:45.118Z,160
2017-10-14T08:39:25.654Z,165
2017-10-14T08:40:06.200Z,165
2017-10-14T08:40:46.737Z,165
2017-10-14T08:41:27.279Z,165
2017-10-14T08:42:07.817Z,170
2017-10-14T08:42:48.355Z,175
2017-10-14T08:43:28.890Z,180
2017-10-14T08:44:09.431Z,185
2017-10-14T08:44:49.967Z,190
2017-10-14T08:45:30.501Z,200
2017-10-14T08:46:11.033Z,210
2017-10-14T08:46:51.580Z,220
2017-10-14T08:47:32.156Z,235
2017-10-14T08:48:12.694Z,250
2017-10-14T08:48:53.235Z,275
2017-10-14T08:49:33.773Z,340
2017-10-14T08:50:14.309Z,365
2017-10-14T08:50:54.844Z,305
2017-10-14T08:51:35.383Z,230
2017-10-14T08:52:15.917Z,230
2017-10-14T08:52:56.464Z,325
2017-10-14T08:53:37.001Z,490
2017-10-14T08:54:17.548Z,705
2017-10-14T08:54:58.091Z,815
2017-10-14T08:55:38.631Z,705
2017-10-14T08:56:19.169Z,520
2017-10-14T08:56:59.709Z,295
2017-10-14T08:57:40.250Z,305
2017-10-14T08:58:20.788Z,475
2017-10-14T08:59:01.327Z,775
2017-10-14T08:59:41.871Z,970
2017-10-14T09:00:22.408Z,1015
2017-10-14T09:01:02.958Z,1075
2017-10-14T09:01:43.508Z,1245
2017-10-14T09:02:24.049Z,1395
2017-10-14T09:03:04.597Z,1480
2017-10-14T09:03:45.174Z,1500
2017-10-14T09:04:25.713Z,1550
2017-10-14T09:05:06.254Z,1590
2017-10-14T09:05:46.794Z,1585
2017-10-14T09:06:27.342Z,1450
2017-10-14T09:07:07.874Z,1370
2017-10-14T09:07:48.412Z,1300
2017-10-14T09:08:28.955Z,1310
2017-10-14T09:09:09.493Z,1375
2017-10-14T09:09:50.034Z,1485
2017-10-14T09:10:30.582Z,1515
2017-10-14T09:11:11.119Z,1505
2017-10-14T09:11:51.668Z,1480
2017-10-14T09:12:32.212Z,1500
2017-10-14T09:13:12.753Z,1580
2017-10-14T09:13:53.293Z,1595
2017-10-14T09:14:33.828Z,1595
2017-10-14T09:15:14.376Z,1610
2017-10-14T09:15:54.913Z,1600
2017-10-14T09:16:35.451Z,1565
2017-10-14T09:17:16.003Z,1530
2017-10-14T09:17:56.538Z,1505
2017-10-14T09:18:37.083Z,1530
2017-10-14T09:19:17.627Z,1545
2017-10-14T09:19:58.170Z,1560
2017-10-14T09:20:38.719Z,1545
2017-10-14T09:21:19.261Z,1520
2017-10-14T09:21:59.808Z,1515
2017-10-14T09:22:40.347Z,1505
2017-10-14T09:23:20.894Z,1520
2017-10-14T09:24:01.439Z,1570
2017-10-14T09:24:41.983Z,1605
2017-10-14T09:25:22.525Z,1605
2017-10-14T09:26:03.062Z,1590
2017-10-14T09:26:43.601Z,1585
2017-10-14T09:27:24.160Z,1565
2017-10-14T09:28:04.700Z,1580
2017-10-14T09:28:45.252Z,1575
2017-10-14T09:29:25.795Z,1565
2017-10-14T09:30:06.339Z,1570
2017-10-14T09:30:46.884Z,1600
2017-10-14T09:31:27.420Z,1615
2017-10-14T09:32:07.976Z,1615
2017-10-14T09:32:48.511Z,1640
2017-10-14T09:33:29.038Z,1645
2017-10-14T09:34:09.578Z,1640
2017-10-14T09:34:50.120Z,1670
2017-10-14T09:35:30.708Z,1695
2017-10-14T09:36:11.252Z,1720
2017-10-14T09:36:51.801Z,1715
2017-10-14T09:37:32.337Z,1720
2017-10-14T09:38:12.882Z,1715
2017-10-14T09:38:53.426Z,1730
2017-10-14T09:39:33.973Z,1735
2017-10-14T09:40:14.513Z,1765
2017-10-14T09:40:55.063Z,1800
2017-10-14T09:41:35.615Z,1820
2017-10-14T09:42:16.159Z,1815
2017-10-14T09:42:56.703Z,1770
2017-10-14T09:43:37.250Z,1750
2017-10-14T09:44:17.801Z,1795